createdAt,value
2023-01-13T00:01:07.918Z,101095.08
2023-01-13T00:03:35.781Z,101096.31
2023-01-13T00:06:03.713Z,101092.95
2023-01-13T00:08:31.307Z,101093.61
2023-01-13T00:10:58.721Z,101093.06
2023-01-13T00:13:28.397Z,101091.72
2023-01-13T00:16:05.091Z,101091.73
2023-01-13T00:18:33.892Z,101091.99
2023-01-13T00:21:16.750Z,101086.95
2023-01-13T00:23:44.767Z,101092.21
2023-01-13T00:26:15.824Z,101091.34
2023-01-13T00:28:43.223Z,101089.98
2023-01-13T00:31:12.464Z,101090.91
2023-01-13T00:33:40.193Z,101086.91
2023-01-13T00:36:10.258Z,101087.13
2023-01-13T00:38:38.306Z,101086.56
2023-01-13T00:41:09.025Z,101083.98
2023-01-13T00:43:36.986Z,101081.88
2023-01-13T00:46:06.670Z,101075.27
2023-01-13T00:48:34.269Z,101063.55
2023-01-13T00:51:10.747Z,101065.61
2023-01-13T00:53:40.950Z,101070.60
2023-01-13T00:56:13.924Z,101061.56
2023-01-13T00:58:42.192Z,101066.05
2023-01-13T01:01:21.295Z,101069.40
2023-01-13T01:03:49.957Z,101074.98
2023-01-13T01:06:21.419Z,101070.59
2023-01-13T01:08:48.960Z,101073.02
2023-01-13T01:11:26.173Z,101072.91
2023-01-13T01:13:55.868Z,101072.92
2023-01-13T01:16:26.547Z,101073.79
2023-01-13T01:18:54.475Z,101069.08
2023-01-13T01:21:23.888Z,101068.86
2023-01-13T01:23:51.444Z,101066.64
2023-01-13T01:26:21.706Z,101070.42
2023-01-13T01:28:49.145Z,101069.23
2023-01-13T01:31:27.715Z,101075.89
2023-01-13T01:33:54.980Z,101076.91
2023-01-13T01:36:26.127Z,101074.96
2023-01-13T01:38:56.327Z,101071.19
2023-01-13T01:41:26.755Z,101071.61
2023-01-13T01:44:07.522Z,101077.39
2023-01-13T01:46:41.160Z,101070.02
2023-01-13T01:49:29.085Z,101068.66
2023-01-13T01:52:02.856Z,101064.21
2023-01-13T01:54:47.745Z,101064.80
2023-01-13T01:57:32.263Z,101070.81
2023-01-13T02:00:00.380Z,101066.91
2023-01-13T02:02:29.724Z,101063.82
2023-01-13T02:04:57.927Z,101063.43
2023-01-13T02:07:31.479Z,101065.54
2023-01-13T02:10:03.779Z,101071.41
2023-01-13T02:12:34.012Z,101069.02
2023-01-13T02:15:14.804Z,101067.46
2023-01-13T02:18:32.147Z,101067.57
2023-01-13T02:21:20.489Z,101067.02
2023-01-13T02:24:42.844Z,101065.40
2023-01-13T02:28:01.359Z,101067.98
2023-01-13T02:31:11.624Z,101065.98
2023-01-13T02:33:55.637Z,101061.07
2023-01-13T02:36:49.689Z,101060.52
2023-01-13T02:39:25.660Z,101056.13
2023-01-13T02:42:41.781Z,101046.44
2023-01-13T02:45:31.947Z,101045.95
2023-01-13T02:48:02.670Z,101046.00
2023-01-13T02:50:37.273Z,101046.90
2023-01-13T02:53:17.644Z,101044.13
2023-01-13T02:55:50.432Z,101043.98
2023-01-13T02:58:23.611Z,101044.40
2023-01-13T03:00:51.854Z,101040.64
2023-01-13T03:03:19.228Z,101046.09
2023-01-13T03:05:50.900Z,101043.31
2023-01-13T03:08:56.168Z,101043.04
2023-01-13T03:11:27.163Z,101043.19
2023-01-13T03:14:22.617Z,101047.83
2023-01-13T03:17:31.616Z,101045.45
2023-01-13T03:20:25.320Z,101045.73
2023-01-13T03:23:40.398Z,101049.90
2023-01-13T03:26:35.812Z,101049.24
2023-01-13T03:29:22.457Z,101045.67
2023-01-13T03:32:04.787Z,101048.48
2023-01-13T03:34:46.988Z,101049.42
2023-01-13T03:37:18.804Z,101046.41
2023-01-13T03:39:53.458Z,101045.58
2023-01-13T03:42:25.849Z,101045.36
2023-01-13T03:45:17.323Z,101040.48
2023-01-13T03:47:54.943Z,101037.79
2023-01-13T03:50:29.496Z,101038.98
2023-01-13T03:53:19.246Z,101037.58
2023-01-13T03:56:01.562Z,101042.44
2023-01-13T03:58:35.475Z,101039.62
2023-01-13T04:01:16.616Z,101042.54
2023-01-13T04:04:07.019Z,101044.42
2023-01-13T04:06:53.821Z,101039.61
2023-01-13T04:09:42.317Z,101043.63
2023-01-13T04:12:22.970Z,101044.14
2023-01-13T04:14:51.709Z,101046.52
2023-01-13T04:17:19.313Z,101044.69
2023-01-13T04:19:46.634Z,101047.05
2023-01-13T04:22:13.926Z,101046.45
2023-01-13T04:24:41.018Z,101047.38
2023-01-13T04:27:08.136Z,101049.81
2023-01-13T04:29:35.265Z,101051.59
2023-01-13T04:32:02.439Z,101051.33
2023-01-13T04:34:29.574Z,101052.62
2023-01-13T04:36:56.714Z,101051.37
2023-01-13T04:39:23.889Z,101053.73
2023-01-13T04:42:00.673Z,101051.89
2023-01-13T04:44:29.953Z,101051.38
2023-01-13T04:46:58.196Z,101052.79
2023-01-13T04:49:25.402Z,101055.92
2023-01-13T04:51:52.847Z,101062.05
2023-01-13T04:54:20.192Z,101061.38
2023-01-13T04:56:47.329Z,101065.91
2023-01-13T04:59:14.475Z,101069.15
2023-01-13T05:01:41.663Z,101066.44
2023-01-13T05:04:09.080Z,101070.74
2023-01-13T05:06:36.206Z,101071.86
2023-01-13T05:09:03.461Z,101072.48
2023-01-13T05:11:48.810Z,101072.31
2023-01-13T05:14:34.166Z,101070.26
2023-01-13T05:17:01.517Z,101073.83
2023-01-13T05:19:33.335Z,101071.86
2023-01-13T05:22:19.657Z,101070.94
2023-01-13T05:25:05.611Z,101071.95
2023-01-13T05:27:33.193Z,101076.63
2023-01-13T05:30:00.864Z,101078.08
2023-01-13T05:32:28.001Z,101079.41
2023-01-13T05:34:55.766Z,101086.21
2023-01-13T05:37:25.221Z,101090.67
2023-01-13T05:40:10.589Z,101087.48
2023-01-13T05:42:56.465Z,101092.00
2023-01-13T05:45:24.567Z,101096.17
2023-01-13T05:47:51.841Z,101084.76
2023-01-13T05:50:19.076Z,101086.25
2023-01-13T05:52:46.373Z,101087.21
2023-01-13T05:55:14.190Z,101090.45
2023-01-13T05:57:41.732Z,101095.27
2023-01-13T06:00:09.670Z,101093.27
2023-01-13T06:02:39.966Z,101092.30
2023-01-13T06:05:07.644Z,101095.15
2023-01-13T06:07:34.744Z,101093.29
2023-01-13T06:10:01.909Z,101093.11
2023-01-13T06:12:29.227Z,101096.44
2023-01-13T06:14:56.336Z,101096.10
2023-01-13T06:17:23.435Z,101100.83
2023-01-13T06:19:50.616Z,101102.24
2023-01-13T06:22:23.329Z,101102.83
2023-01-13T06:24:53.334Z,101101.91
2023-01-13T06:27:22.313Z,101103.81
2023-01-13T06:29:49.744Z,101102.62
2023-01-13T06:32:32.030Z,101099.23
2023-01-13T06:35:06.081Z,101099.14
2023-01-13T06:37:34.133Z,101104.45
2023-01-13T06:40:03.822Z,101104.43
2023-01-13T06:42:52.846Z,101107.40
2023-01-13T06:45:21.495Z,101112.02
2023-01-13T06:47:49.179Z,101110.70
2023-01-13T06:50:18.319Z,101109.25
2023-01-13T06:52:45.429Z,101111.02
2023-01-13T06:55:12.680Z,101107.92
2023-01-13T06:57:57.160Z,101110.23
2023-01-13T07:00:25.078Z,101112.48
2023-01-13T07:02:52.548Z,101113.89
2023-01-13T07:05:20.751Z,101113.89
2023-01-13T07:07:47.890Z,101112.30
2023-01-13T07:10:21.600Z,101107.38
2023-01-13T07:13:08.139Z,101111.13
2023-01-13T07:15:35.818Z,101109.86
2023-01-13T07:18:03.107Z,101113.59
2023-01-13T07:20:31.047Z,101118.19
2023-01-13T07:22:58.274Z,101122.92
2023-01-13T07:25:25.724Z,101118.17
2023-01-13T07:27:52.780Z,101118.25
2023-01-13T07:30:20.111Z,101116.27
2023-01-13T07:32:47.418Z,101118.35
2023-01-13T07:35:14.660Z,101115.81
2023-01-13T07:37:41.890Z,101118.70
2023-01-13T07:40:10.069Z,101118.81
2023-01-13T07:42:56.667Z,101119.48
2023-01-13T07:45:23.800Z,101115.02
2023-01-13T07:47:53.176Z,101114.67
2023-01-13T07:50:21.115Z,101112.84
2023-01-13T07:52:48.140Z,101108.10
2023-01-13T07:55:15.311Z,101110.27
2023-01-13T07:57:42.494Z,101107.46
2023-01-13T08:00:12.774Z,101117.49
2023-01-13T08:02:40.584Z,101115.27
2023-01-13T08:05:08.877Z,101112.27
2023-01-13T08:07:36.147Z,101115.05
2023-01-13T08:10:03.809Z,101117.91
2023-01-13T08:12:51.998Z,101116.60
2023-01-13T08:15:23.050Z,101114.67
2023-01-13T08:17:50.242Z,101116.72
2023-01-13T08:20:17.812Z,101119.37
2023-01-13T08:22:44.970Z,101112.35
2023-01-13T08:25:12.302Z,101113.52
2023-01-13T08:27:39.626Z,101114.90
2023-01-13T08:30:08.394Z,101115.17
2023-01-13T08:32:35.586Z,101117.48
2023-01-13T08:35:02.729Z,101113.05
2023-01-13T08:37:29.880Z,101107.44
2023-01-13T08:39:57.067Z,101106.39
2023-01-13T08:42:26.181Z,101102.68
2023-01-13T08:44:54.275Z,101100.34
2023-01-13T08:47:22.259Z,101099.29
2023-01-13T08:49:51.753Z,101096.98
2023-01-13T08:52:19.586Z,101093.66
2023-01-13T08:54:46.998Z,101080.59
2023-01-13T08:57:14.975Z,101088.41
2023-01-13T08:59:42.918Z,101088.76
2023-01-13T09:02:18.716Z,101088.39
2023-01-13T09:04:46.840Z,101088.04
2023-01-13T09:07:14.817Z,101084.73
2023-01-13T09:09:42.233Z,101083.99
2023-01-13T09:12:35.959Z,101088.50
2023-01-13T09:15:05.659Z,101088.27
2023-01-13T09:17:32.945Z,101085.34
2023-01-13T09:20:00.254Z,101083.89
2023-01-13T09:22:27.413Z,101088.09
2023-01-13T09:24:55.702Z,101089.06
2023-01-13T09:27:23.147Z,101085.33
2023-01-13T09:29:50.395Z,101080.13
2023-01-13T09:32:17.488Z,101079.34
2023-01-13T09:34:59.391Z,101080.97
2023-01-13T09:37:33.621Z,101081.48
2023-01-13T09:40:03.061Z,101086.13
2023-01-13T09:42:48.314Z,101087.87
2023-01-13T09:45:35.230Z,101081.25
2023-01-13T09:48:34.599Z,101078.58
2023-01-13T09:51:30.112Z,101083.99
2023-01-13T09:54:16.754Z,101084.52
2023-01-13T09:56:43.843Z,101081.09
2023-01-13T09:59:12.158Z,101078.35
2023-01-13T10:02:12.910Z,101072.98
2023-01-13T10:04:40.091Z,101064.70
2023-01-13T10:07:14.471Z,101059.29
2023-01-13T10:10:13.076Z,101053.64
2023-01-13T10:12:59.287Z,101049.35
2023-01-13T10:15:26.807Z,101046.25
2023-01-13T10:18:05.241Z,101048.23
2023-01-13T10:20:59.799Z,101046.00
2023-01-13T10:24:01.033Z,101042.90
2023-01-13T10:26:55.380Z,101047.97
2023-01-13T10:29:28.807Z,101044.30
2023-01-13T10:31:58.873Z,101038.87
2023-01-13T10:34:27.832Z,101040.29
2023-01-13T10:37:08.052Z,101040.27
2023-01-13T10:39:41.742Z,101038.73
2023-01-13T10:42:18.655Z,101036.77
2023-01-13T10:45:00.078Z,101036.34
2023-01-13T10:47:34.050Z,101039.05
2023-01-13T10:50:13.132Z,101043.64
2023-01-13T10:52:59.466Z,101038.55
2023-01-13T10:55:38.021Z,101038.46
2023-01-13T10:58:18.715Z,101039.95
2023-01-13T11:00:46.901Z,101036.70
2023-01-13T11:03:24.242Z,101033.48
2023-01-13T11:05:59.707Z,101031.98
2023-01-13T11:08:42.679Z,101029.48
2023-01-13T11:11:42.285Z,101027.27
2023-01-13T11:14:44.964Z,101026.77
2023-01-13T11:17:48.169Z,101027.30
2023-01-13T11:20:31.222Z,101022.40
2023-01-13T11:23:07.796Z,101018.64
2023-01-13T11:25:42.678Z,101016.91
2023-01-13T11:28:38.097Z,101018.60
2023-01-13T11:31:18.104Z,101014.05
2023-01-13T11:33:56.488Z,101010.27
2023-01-13T11:36:50.846Z,101008.08
2023-01-13T11:39:55.717Z,101010.34
2023-01-13T11:42:53.649Z,101013.95
2023-01-13T11:45:50.113Z,101012.35
2023-01-13T11:48:26.440Z,101009.94
2023-01-13T11:51:14.562Z,101009.02
2023-01-13T11:54:23.761Z,101007.86
2023-01-13T11:57:11.866Z,101006.58
2023-01-13T12:00:02.973Z,101002.70
2023-01-13T12:03:37.527Z,101001.66
2023-01-13T12:06:16.439Z,101002.19
2023-01-13T12:09:11.418Z,100998.52
2023-01-13T12:12:08.863Z,101000.41
2023-01-13T12:14:42.384Z,100996.23
2023-01-13T12:17:29.671Z,100993.77
2023-01-13T12:19:56.895Z,100992.05
2023-01-13T12:22:30.196Z,100989.87
2023-01-13T12:25:17.582Z,100994.14
2023-01-13T12:28:13.123Z,100995.37
2023-01-13T12:30:50.142Z,100994.70
2023-01-13T12:33:54.407Z,100991.95
2023-01-13T12:36:39.013Z,100992.92
2023-01-13T12:39:11.732Z,100997.48
2023-01-13T12:42:16.192Z,100997.02
2023-01-13T12:45:11.148Z,100993.66
2023-01-13T12:47:44.983Z,101000.15
2023-01-13T12:50:24.363Z,101001.47
2023-01-13T12:52:54.417Z,101003.56
2023-01-13T12:55:22.990Z,101008.79
2023-01-13T12:58:15.861Z,101006.45
2023-01-13T13:00:44.256Z,101002.97
2023-01-13T13:03:11.702Z,101003.55
2023-01-13T13:05:48.304Z,101005.83
2023-01-13T13:08:37.320Z,101004.12
2023-01-13T13:11:31.792Z,100996.77
2023-01-13T13:14:12.290Z,100995.06
2023-01-13T13:16:51.459Z,100998.89
2023-01-13T13:19:19.442Z,100999.86
2023-01-13T13:22:12.640Z,100999.06
2023-01-13T13:24:42.591Z,101000.92
2023-01-13T13:27:51.508Z,101002.73
2023-01-13T13:30:36.384Z,101007.94
2023-01-13T13:33:38.449Z,101012.45
2023-01-13T13:36:51.091Z,101014.07
2023-01-13T13:39:49.298Z,101011.67
2023-01-13T13:42:35.234Z,101013.93
2023-01-13T13:45:37.423Z,101012.20
2023-01-13T13:48:30.112Z,101014.66
2023-01-13T13:51:02.357Z,101012.26
2023-01-13T13:53:47.710Z,101010.73
2023-01-13T13:56:20.256Z,101015.07
2023-01-13T13:58:49.001Z,101014.55
2023-01-13T14:01:28.143Z,101010.27
2023-01-13T14:04:17.993Z,101008.08
2023-01-13T14:07:15.573Z,101007.96
2023-01-13T14:09:48.300Z,101016.80
2023-01-13T14:12:24.103Z,101016.20
2023-01-13T14:14:51.774Z,101019.25
2023-01-13T14:17:29.182Z,101021.86
2023-01-13T14:20:04.362Z,101029.85
2023-01-13T14:22:32.324Z,101029.30
2023-01-13T14:25:01.348Z,101031.23
2023-01-13T14:27:30.322Z,101032.23
2023-01-13T14:30:00.571Z,101037.39
2023-01-13T14:32:37.474Z,101036.61
2023-01-13T14:35:08.309Z,101038.36
2023-01-13T14:37:40.514Z,101041.84
2023-01-13T14:40:32.378Z,101044.83
2023-01-13T14:43:00.647Z,101044.77
2023-01-13T14:45:27.937Z,101045.50
2023-01-13T14:47:57.410Z,101042.84
2023-01-13T14:50:31.022Z,101045.14
2023-01-13T14:53:00.181Z,101051.95
2023-01-13T14:55:37.968Z,101052.84
2023-01-13T14:58:31.459Z,101049.27
2023-01-13T15:01:35.554Z,101045.88
2023-01-13T15:04:25.792Z,101054.27
2023-01-13T15:06:56.594Z,101052.50
2023-01-13T15:09:28.867Z,101049.70
2023-01-13T15:11:58.203Z,101048.67
2023-01-13T15:14:33.870Z,101048.48
2023-01-13T15:17:02.399Z,101047.86
2023-01-13T15:19:29.433Z,101052.04
2023-01-13T15:21:56.559Z,101053.20
2023-01-13T15:24:23.591Z,101052.94
2023-01-13T15:26:51.674Z,101058.59
2023-01-13T15:29:19.481Z,101059.98
2023-01-13T15:31:46.613Z,101059.93
2023-01-13T15:34:13.736Z,101055.70
2023-01-13T15:36:40.986Z,101056.55
2023-01-13T15:39:12.637Z,101060.23
2023-01-13T15:41:58.119Z,101057.00
2023-01-13T15:44:43.313Z,101057.23
2023-01-13T15:47:10.645Z,101061.33
2023-01-13T15:49:45.144Z,101057.69
2023-01-13T15:52:24.857Z,101056.30
2023-01-13T15:54:53.574Z,101059.80
2023-01-13T15:57:25.000Z,101063.69
2023-01-13T15:59:56.192Z,101064.01
2023-01-13T16:02:24.755Z,101062.20
2023-01-13T16:04:53.424Z,101061.83
2023-01-13T16:07:23.213Z,101063.22
2023-01-13T16:09:50.356Z,101059.92
2023-01-13T16:12:17.569Z,101062.02
2023-01-13T16:14:44.701Z,101059.40
2023-01-13T16:17:24.777Z,101061.39
2023-01-13T16:19:51.907Z,101062.83
2023-01-13T16:22:19.021Z,101062.13
2023-01-13T16:24:46.316Z,101060.83
2023-01-13T16:27:19.924Z,101058.48
2023-01-13T16:29:48.663Z,101060.02
2023-01-13T16:32:16.426Z,101062.30
2023-01-13T16:34:43.954Z,101064.75
2023-01-13T16:37:24.171Z,101061.61
2023-01-13T16:39:52.839Z,101056.67
2023-01-13T16:42:21.169Z,101055.80
2023-01-13T16:44:49.219Z,101050.87
2023-01-13T16:47:17.815Z,101052.55
2023-01-13T16:49:45.465Z,101054.33
2023-01-13T16:52:12.724Z,101052.24
2023-01-13T16:54:39.951Z,101055.23
2023-01-13T16:57:10.320Z,101051.77
2023-01-13T16:59:37.421Z,101051.79
2023-01-13T17:02:11.030Z,101050.73
2023-01-13T17:04:38.259Z,101050.85
2023-01-13T17:07:07.818Z,101050.70
2023-01-13T17:09:35.001Z,101050.64
2023-01-13T17:12:02.192Z,101051.80
2023-01-13T17:14:29.395Z,101051.43
2023-01-13T17:16:57.548Z,101053.48
2023-01-13T17:19:25.300Z,101053.55
2023-01-13T17:21:53.031Z,101055.74
2023-01-13T17:24:20.626Z,101052.36
2023-01-13T17:26:50.476Z,101052.39
2023-01-13T17:29:24.641Z,101052.14
2023-01-13T17:31:52.187Z,101054.94
2023-01-13T17:34:20.584Z,101060.38
2023-01-13T17:36:48.615Z,101062.27
2023-01-13T17:39:23.867Z,101058.75
2023-01-13T17:41:55.476Z,101060.25
2023-01-13T17:44:23.016Z,101065.67
2023-01-13T17:46:50.350Z,101061.03
2023-01-13T17:49:20.728Z,101063.61
2023-01-13T17:51:51.023Z,101061.94
2023-01-13T17:54:19.082Z,101056.98
2023-01-13T17:56:46.870Z,101059.56
2023-01-13T17:59:16.771Z,101058.06
2023-01-13T18:01:44.994Z,101057.39
2023-01-13T18:04:24.131Z,101052.66
2023-01-13T18:06:51.365Z,101049.50
2023-01-13T18:09:18.742Z,101050.42
2023-01-13T18:11:47.213Z,101051.25
2023-01-13T18:14:15.537Z,101049.94
2023-01-13T18:16:43.360Z,101044.13
2023-01-13T18:19:29.074Z,101045.67
2023-01-13T18:22:14.735Z,101043.90
2023-01-13T18:25:00.445Z,101047.23
2023-01-13T18:27:35.201Z,101049.48
2023-01-13T18:30:04.665Z,101049.43
2023-01-13T18:32:33.331Z,101050.33
2023-01-13T18:35:09.230Z,101045.36
2023-01-13T18:37:39.912Z,101048.33
2023-01-13T18:40:10.089Z,101048.75
2023-01-13T18:42:58.897Z,101044.30
2023-01-13T18:45:29.946Z,101042.14
2023-01-13T18:48:01.190Z,101041.89
2023-01-13T18:50:29.656Z,101038.71
2023-01-13T18:52:57.197Z,101042.92
2023-01-13T18:55:24.779Z,101043.39
2023-01-13T18:57:52.879Z,101042.71
2023-01-13T19:00:21.811Z,101046.58
2023-01-13T19:05:35.236Z,101042.22
2023-01-13T19:08:03.938Z,101046.84
2023-01-13T19:10:31.946Z,101046.42
2023-01-13T19:13:00.655Z,101042.68
2023-01-13T19:15:27.870Z,101042.06
2023-01-13T19:17:55.101Z,101042.95
2023-01-13T19:20:22.167Z,101041.60
2023-01-13T19:22:53.663Z,101041.66
2023-01-13T19:25:21.120Z,101036.27
2023-01-13T19:27:48.297Z,101031.80
2023-01-13T19:30:16.772Z,101038.12
2023-01-13T19:32:43.916Z,101035.66
2023-01-13T19:35:12.524Z,101036.80
2023-01-13T19:37:39.877Z,101034.69
2023-01-13T19:40:09.194Z,101038.92
2023-01-13T19:42:55.064Z,101036.17
2023-01-13T19:45:30.074Z,101033.30
2023-01-13T19:48:04.209Z,101030.47
2023-01-13T19:50:34.610Z,101039.64
2023-01-13T19:53:01.844Z,101032.31
2023-01-13T19:55:31.212Z,101035.31
2023-01-13T19:57:58.387Z,101034.30
2023-01-13T20:00:25.512Z,101037.96
2023-01-13T20:02:52.689Z,101044.05
2023-01-13T20:05:23.848Z,101045.62
2023-01-13T20:07:51.423Z,101046.79
2023-01-13T20:10:20.356Z,101043.92
2023-01-13T20:12:48.054Z,101043.00
2023-01-13T20:15:15.554Z,101041.88
2023-01-13T20:17:42.833Z,101036.34
2023-01-13T20:20:11.395Z,101033.64
2023-01-13T20:22:39.579Z,101031.70
2023-01-13T20:25:08.964Z,101030.85
2023-01-13T20:27:36.264Z,101033.35
2023-01-13T20:30:05.893Z,101031.19
2023-01-13T20:32:33.056Z,101029.96
2023-01-13T20:35:00.187Z,101032.16
2023-01-13T20:37:27.298Z,101032.89
2023-01-13T20:39:56.866Z,101032.27
2023-01-13T20:42:31.008Z,101028.98
2023-01-13T20:44:59.205Z,101027.77
2023-01-13T20:47:29.824Z,101027.52
2023-01-13T20:49:58.495Z,101028.17
2023-01-13T20:52:25.945Z,101031.39
2023-01-13T20:54:52.997Z,101034.11
2023-01-13T20:57:20.136Z,101030.67
2023-01-13T20:59:47.298Z,101026.39
2023-01-13T21:02:16.334Z,101026.79
2023-01-13T21:04:43.760Z,101020.86
2023-01-13T21:07:11.287Z,101018.23
2023-01-13T21:09:38.434Z,101017.34
2023-01-13T21:12:24.751Z,101013.23
2023-01-13T21:15:10.440Z,101015.52
2023-01-13T21:17:56.360Z,101016.68
2023-01-13T21:20:23.634Z,101012.09
2023-01-13T21:22:50.776Z,101013.66
2023-01-13T21:25:18.715Z,101012.95
2023-01-13T21:27:45.891Z,101015.03
2023-01-13T21:30:16.423Z,101020.17
2023-01-13T21:32:45.045Z,101020.52
2023-01-13T21:35:13.607Z,101019.72
2023-01-13T21:37:42.908Z,101020.48
2023-01-13T21:40:13.465Z,101020.52
2023-01-13T21:42:59.366Z,101016.84
2023-01-13T21:45:45.279Z,101018.59
2023-01-13T21:48:12.578Z,101017.37
2023-01-13T21:50:39.776Z,101013.66
2023-01-13T21:53:07.449Z,101009.71
2023-01-13T21:55:36.127Z,101006.58
2023-01-13T21:58:10.442Z,101003.14
2023-01-13T22:00:37.859Z,101003.09
2023-01-13T22:03:07.787Z,101003.73
2023-01-13T22:05:35.151Z,101002.04
2023-01-13T22:08:02.944Z,101000.27
2023-01-13T22:10:30.488Z,100997.22
2023-01-13T22:13:22.470Z,100996.71
2023-01-13T22:15:49.710Z,100999.15
2023-01-13T22:18:17.631Z,100996.45
2023-01-13T22:20:45.279Z,100994.86
2023-01-13T22:23:12.505Z,100995.95
2023-01-13T22:25:39.764Z,100993.38
2023-01-13T22:28:08.667Z,100994.20
2023-01-13T22:30:35.927Z,100993.80
2023-01-13T22:33:03.258Z,100989.40
2023-01-13T22:35:30.418Z,100992.90
2023-01-13T22:37:58.317Z,100991.55
2023-01-13T22:40:25.494Z,100989.15
2023-01-13T22:42:52.640Z,100988.23
2023-01-13T22:45:19.690Z,100988.45
2023-01-13T22:47:47.432Z,100983.45
2023-01-13T22:50:16.944Z,100981.01
2023-01-13T22:52:43.989Z,100981.38
2023-01-13T22:55:11.033Z,100978.68
2023-01-13T22:57:47.296Z,100977.67
2023-01-13T23:00:18.233Z,100976.74
2023-01-13T23:02:45.504Z,100977.92
2023-01-13T23:05:13.190Z,100980.73
2023-01-13T23:07:40.537Z,100980.38
2023-01-13T23:10:08.496Z,100976.77
2023-01-13T23:12:35.584Z,100974.59
2023-01-13T23:15:03.778Z,100972.80
2023-01-13T23:17:31.111Z,100976.53
2023-01-13T23:19:58.254Z,100973.54
2023-01-13T23:22:25.420Z,100975.75
2023-01-13T23:24:52.450Z,100978.01
2023-01-13T23:27:19.523Z,100975.36
2023-01-13T23:29:46.600Z,100970.89
2023-01-13T23:32:13.827Z,100973.19
2023-01-13T23:34:40.901Z,100968.77
2023-01-13T23:37:07.961Z,100968.92
2023-01-13T23:39:35.005Z,100972.90
2023-01-13T23:42:02.069Z,100975.59
2023-01-13T23:44:29.169Z,100976.36
2023-01-13T23:46:56.517Z,100974.57
2023-01-13T23:49:23.706Z,100975.65
2023-01-13T23:51:51.559Z,100971.80
2023-01-13T23:54:19.387Z,100970.62
2023-01-13T23:56:49.119Z,100978.25
2023-01-13T23:59:16.171Z,100976.50
